»·PEaware :: N540MA CYDC-KDLS

N540MA :: CYDC-KDLS

FLIGHT INFORMATION

Flight Status: Arrived
Operator: Privately registered:
United States
More flights under this callsign
Pilot: Blake J. (22694)
Aircraft: BEECH AIRCRAFT SUPER KING AIR COMMUTER
(BE20)
More flights by this aircraft type
Origin: CYDC Princeton
Canada
Destination: KDLS Columbia Gorge Regl/The Dalle
United States
More flights between these airports :: More routes between these airports
Route: YDC LTJ
File this flight plan on PilotEdge
Remarks: DOF / 190128 REG / N540MA EET / KZSE0009 RMK / TCAS SIMBRIEF
Altitude:
(Current/Filed)
27,000ft
Speed:
(Current/Filed)
276kts
Departed: 27-Jan-19 07:42 PM
Arrived: 27-Jan-19 08:55 PM
Distance/Time
Traveled:
233nm/1:13
Distance/Time
To Go:
Arrived

Flight Plot

Page will automatically refresh every two minutes.

Flight plan parsing failed; only flown route is shown


Map Options




Map Legend


Flown Route
Filed Route
Departure Airport
Arrival Airport
Navaid (VOR, NDB)
Fix

Horizontal Profiles

Position Reports

Time Latitude Longitude Heading Altitude Ground
Speed
27-Jan-19 19:34 49.467901 -120.515505 222 2303ft 0kts
27-Jan-19 19:35 49.467901 -120.515505 222 2303ft 0kts
27-Jan-19 19:36 49.467901 -120.515505 222 2303ft 0kts
27-Jan-19 19:37 49.467901 -120.515505 222 2303ft 0kts
27-Jan-19 19:38 49.467901 -120.515505 222 2303ft 0kts
27-Jan-19 19:39 49.467012 -120.514583 187 2299ft 11kts
27-Jan-19 19:40 49.464889 -120.518678 46 2303ft 1kts
27-Jan-19 19:41 49.474678 -120.492844 53 3269ft 101kts
27-Jan-19 19:42 49.487024 -120.502669 206 5008ft 90kts
27-Jan-19 19:43 49.459922 -120.495773 131 6656ft 146kts
27-Jan-19 19:44 49.426521 -120.440629 135 8148ft 195kts
27-Jan-19 19:45 49.384706 -120.382871 165 9546ft 207kts
27-Jan-19 19:46 49.327988 -120.386400 187 11081ft 202kts
27-Jan-19 19:47 49.273926 -120.396616 188 12641ft 205kts
27-Jan-19 19:48 49.217020 -120.408707 188 14241ft 206kts
27-Jan-19 19:49 49.159736 -120.419838 203 15855ft 208kts
27-Jan-19 19:50 49.104951 -120.432209 202 17424ft 191kts
27-Jan-19 19:51 49.054149 -120.442857 204 18967ft 180kts
27-Jan-19 19:52 49.004477 -120.453379 204 20443ft 182kts
27-Jan-19 19:53 48.954453 -120.463774 205 21782ft 181kts
27-Jan-19 19:54 48.904249 -120.474261 205 22934ft 182kts
27-Jan-19 19:55 48.854770 -120.484576 206 23964ft 183kts
27-Jan-19 19:56 48.807851 -120.494363 206 24863ft 181kts
27-Jan-19 19:57 48.758472 -120.504533 206 25792ft 178kts
27-Jan-19 19:58 48.709129 -120.514793 206 26559ft 178kts
27-Jan-19 19:59 48.659267 -120.525285 205 27004ft 191kts
27-Jan-19 20:01 48.604163 -120.536626 204 27000ft 202kts
27-Jan-19 20:02 48.549254 -120.547661 204 27320ft 192kts
27-Jan-19 20:03 48.495674 -120.558834 204 27403ft 199kts
27-Jan-19 20:04 48.440419 -120.570108 204 27405ft 200kts
27-Jan-19 20:05 48.384930 -120.581446 204 27394ft 201kts
27-Jan-19 20:06 48.329356 -120.592759 204 27423ft 201kts
27-Jan-19 20:07 48.273224 -120.604228 204 27430ft 204kts
27-Jan-19 20:08 48.216492 -120.615724 204 27418ft 205kts
27-Jan-19 20:09 48.159685 -120.627217 203 27420ft 205kts
27-Jan-19 20:10 48.102799 -120.638716 203 27427ft 206kts
27-Jan-19 20:11 48.046109 -120.650148 203 27427ft 206kts
27-Jan-19 20:12 47.989670 -120.661640 202 27194ft 217kts
27-Jan-19 20:13 47.928412 -120.673965 201 26244ft 231kts
27-Jan-19 20:14 47.863349 -120.686928 201 25276ft 238kts
27-Jan-19 20:15 47.797692 -120.700012 201 24313ft 241kts
27-Jan-19 20:15 47.742591 -120.710962 201 23503ft 239kts
27-Jan-19 20:17 47.669240 -120.725441 202 23382ft 221kts
27-Jan-19 20:18 47.608729 -120.737818 203 23383ft 218kts
27-Jan-19 20:19 47.548334 -120.749943 202 23384ft 217kts
27-Jan-19 20:19 47.498349 -120.759841 203 23383ft 217kts
27-Jan-19 20:21 47.428408 -120.773636 203 23381ft 217kts
27-Jan-19 20:22 47.368258 -120.785497 202 23334ft 221kts
27-Jan-19 20:22 47.316409 -120.795742 202 23331ft 230kts
27-Jan-19 20:23 47.251868 -120.808339 202 23304ft 235kts
27-Jan-19 20:24 47.186892 -120.820959 202 23315ft 234kts
27-Jan-19 20:25 47.119852 -120.834163 200 22500ft 250kts
27-Jan-19 20:26 47.051321 -120.847282 200 21516ft 244kts
27-Jan-19 20:27 46.984306 -120.860288 200 20520ft 241kts
27-Jan-19 20:28 46.918143 -120.873072 200 19521ft 238kts
27-Jan-19 20:29 46.856664 -120.884940 200 18595ft 238kts
27-Jan-19 20:30 46.791043 -120.897569 199 17606ft 237kts
27-Jan-19 20:31 46.726248 -120.909974 199 16607ft 233kts
27-Jan-19 20:32 46.662878 -120.922028 200 15962ft 222kts
27-Jan-19 20:33 46.603026 -120.933421 200 15953ft 212kts
27-Jan-19 20:34 46.545284 -120.944607 200 15844ft 213kts
27-Jan-19 20:35 46.485056 -120.956311 198 14869ft 220kts
27-Jan-19 20:36 46.423787 -120.967917 199 13853ft 223kts
27-Jan-19 20:37 46.362350 -120.979534 198 12857ft 223kts
27-Jan-19 20:38 46.300782 -120.991143 199 11838ft 224kts
27-Jan-19 20:39 46.238885 -121.003096 200 10815ft 225kts
27-Jan-19 20:40 46.175897 -121.020685 192 9799ft 238kts
27-Jan-19 20:41 46.122051 -121.034522 191 9015ft 251kts
27-Jan-19 20:42 46.054180 -121.052519 190 8037ft 243kts
27-Jan-19 20:43 45.991974 -121.069107 190 7989ft 216kts
27-Jan-19 20:44 45.934071 -121.084587 190 7991ft 208kts
27-Jan-19 20:45 45.879998 -121.099018 190 7988ft 205kts
27-Jan-19 20:46 45.824042 -121.113923 190 7989ft 203kts
27-Jan-19 20:47 45.767964 -121.128873 189 6333ft 197kts
27-Jan-19 20:48 45.717873 -121.142138 188 4299ft 172kts
27-Jan-19 20:49 45.675303 -121.153396 187 3189ft 127kts
27-Jan-19 20:50 45.644631 -121.165746 231 2692ft 132kts
27-Jan-19 20:51 45.638181 -121.218585 261 1724ft 138kts
27-Jan-19 20:52 45.615384 -121.220358 86 1290ft 92kts
27-Jan-19 20:53 45.617257 -121.187299 88 737ft 90kts
27-Jan-19 20:54 45.613842 -121.163684 143 237ft 13kts
27-Jan-19 20:55 45.612467 -121.163657 321 237ft 9kts
27-Jan-19 20:56 45.613577 -121.164808 324 237ft 2kts
27-Jan-19 20:57 45.616417 -121.168278 282 230ft 12kts
27-Jan-19 20:58 45.617937 -121.170799 245 223ft 5kts
27-Jan-19 20:59 45.617962 -121.171644 320 222ft 0kts

Navigation Log

Ident Type
Flight plan parsing failed, navigation log unavailable